Time;durP1;ratioP1;P1;durP2;ratioP2;P2;SDS_P1;SDS_P2;PMS_P1;PMS_P2;Temp;Humidity;BMP_temperature;BMP_pressure;BME280_temperature;BME280_humidity;BME280_pressure;Samples;Min_cycle;Max_cycle;Signal;HPM_P1;HPM_P2
2021/06/05 00:00:47;;;;;;;;;;;;;;;19.50;54.35;100365.56;5091005;28;19922;-50
2021/06/05 00:03:13;;;;;;;;;;;;;;;19.54;54.26;100364.81;5090970;28;19912;-50
2021/06/05 00:05:43;;;;;;;;;;;;;;;19.54;54.50;100358.59;5090849;28;19912;-50
2021/06/05 00:08:08;;;;;;;;;;;;;;;19.51;54.49;100369.88;5091050;28;19923;-50
2021/06/05 00:10:35;;;;;;;;;;;;;;;19.36;54.82;100367.78;5091019;28;19939;-50
2021/06/05 00:13:00;;;;;;;;;;;;;;;19.33;55.44;100373.69;5091151;28;19980;-50
2021/06/05 00:15:30;;;;;;;;;;;;;;;19.42;54.72;100372.19;5090716;28;19920;-51
2021/06/05 00:17:55;;;;;;;;;;;;;;;19.44;54.78;100380.03;5091141;28;20392;-51
2021/06/05 00:20:21;;;;;;;;;;;;;;;19.39;54.89;100375.38;5091032;28;19955;-49
2021/06/05 00:22:46;;;;;;;;;;;;;;;19.41;54.90;100372.44;5102786;28;19960;-51
2021/06/05 00:25:12;;;;;;;;;;;;;;;19.30;55.49;100366.06;5111520;28;20284;-52
2021/06/05 00:27:38;;;;;;;;;;;;;;;19.41;54.96;100365.16;5111540;28;19915;-50
2021/06/05 00:30:04;;;;;;;;;;;;;;;19.41;55.01;100367.84;5110752;28;20576;-50
2021/06/05 00:32:29;;;;;;;;;;;;;;;19.46;54.90;100362.53;5110949;28;19912;-50
2021/06/05 00:34:54;;;;;;;;;;;;;;;19.44;54.88;100369.22;5110954;28;19911;-52
2021/06/05 00:37:19;;;;;;;;;;;;;;;19.36;55.13;100364.25;5111032;28;20357;-51
2021/06/05 00:39:45;;;;;;;;;;;;;;;19.36;55.27;100369.66;5110980;28;19911;-52
2021/06/05 00:42:10;;;;;;;;;;;;;;;19.31;55.31;100363.13;5111019;28;20341;-52
2021/06/05 00:44:35;;;;;;;;;;;;;;;19.27;55.45;100364.69;5110589;28;19962;-51
2021/06/05 00:47:00;;;;;;;;;;;;;;;19.19;55.87;100359.72;5110825;28;19954;-52
2021/06/05 00:49:26;;;;;;;;;;;;;;;19.05;55.80;100363.78;5110516;28;19912;-52
2021/06/05 00:51:51;;;;;;;;;;;;;;;19.11;55.96;100360.94;5108175;28;19916;-48
2021/06/05 00:54:17;;;;;;;;;;;;;;;19.05;55.90;100358.38;5092375;28;19912;-49
2021/06/05 00:56:43;;;;;;;;;;;;;;;18.92;56.18;100357.66;5094665;28;19947;-49
2021/06/05 00:59:09;;;;;;;;;;;;;;;18.94;56.40;100357.38;5092823;28;19966;-50
2021/06/05 01:01:34;;;;;;;;;;;;;;;18.88;56.67;100352.97;5094012;28;20462;-52
2021/06/05 01:03:59;;;;;;;;;;;;;;;18.93;56.58;100356.56;5094180;28;20002;-51
2021/06/05 01:06:28;;;;;;;;;;;;;;;18.92;56.34;100357.66;5093971;28;19919;-52
2021/06/05 01:08:54;;;;;;;;;;;;;;;18.93;56.14;100355.75;5092719;28;20060;-50
2021/06/05 01:11:28;;;;;;;;;;;;;;;18.90;56.29;100357.06;5094123;28;20015;-50
2021/06/05 01:13:55;;;;;;;;;;;;;;;18.88;56.66;100350.28;5094855;28;19970;-51
2021/06/05 01:16:20;;;;;;;;;;;;;;;18.98;56.24;100352.31;5092976;28;19927;-51
2021/06/05 01:19:01;;;;;;;;;;;;;;;18.95;56.31;100353.66;5094292;28;19912;-51
2021/06/05 01:21:30;;;;;;;;;;;;;;;18.72;56.83;100346.47;5093389;28;19999;-53
2021/06/05 01:23:55;;;;;;;;;;;;;;;18.68;57.51;100346.16;5113423;28;19911;-52
2021/06/05 01:26:25;;;;;;;;;;;;;;;18.75;57.16;100338.72;5114541;28;19968;-52
2021/06/05 01:29:01;;;;;;;;;;;;;;;18.53;57.89;100333.19;5112849;28;20372;-52
2021/06/05 01:31:29;;;;;;;;;;;;;;;18.66;57.58;100333.97;5114349;28;20027;-50
2021/06/05 01:33:54;;;;;;;;;;;;;;;18.73;57.23;100340.00;5112867;28;19912;-49
2021/06/05 01:36:20;;;;;;;;;;;;;;;18.78;57.06;100339.28;5114239;28;19960;-50
2021/06/05 01:38:46;;;;;;;;;;;;;;;18.78;57.13;100333.91;5114066;28;20002;-50
2021/06/05 01:41:11;;;;;;;;;;;;;;;18.73;57.08;100337.31;5112973;28;19939;-48
2021/06/05 01:43:37;;;;;;;;;;;;;;;18.44;58.33;100340.03;5112743;28;19951;-50
2021/06/05 01:46:02;;;;;;;;;;;;;;;18.65;57.93;100340.41;5114058;27;19912;-48
2021/06/05 01:48:27;;;;;;;;;;;;;;;18.82;57.17;100343.97;5112787;28;19912;-50
2021/06/05 01:50:53;;;;;;;;;;;;;;;18.82;57.31;100337.78;5114087;28;19916;-50
2021/06/05 01:53:25;;;;;;;;;;;;;;;18.78;57.15;100328.50;5098459;28;20376;-49
2021/06/05 01:55:53;;;;;;;;;;;;;;;18.75;57.28;100327.09;5092279;28;20366;-48
2021/06/05 01:58:19;;;;;;;;;;;;;;;18.78;57.16;100325.81;5091560;28;19916;-51
2021/06/05 02:00:45;;;;;;;;;;;;;;;18.87;56.75;100327.91;5091417;28;19975;-49
2021/06/05 02:03:11;;;;;;;;;;;;;;;18.80;57.43;100338.00;5093091;28;20355;-52
2021/06/05 02:05:36;;;;;;;;;;;;;;;18.67;57.51;100328.31;5091856;28;20433;-52
2021/06/05 02:08:01;;;;;;;;;;;;;;;18.73;57.80;100321.13;5093145;28;19912;-52
2021/06/05 02:10:27;;;;;;;;;;;;;;;18.79;57.42;100322.03;5091812;28;20379;-50
2021/06/05 02:12:53;;;;;;;;;;;;;;;18.82;57.21;100321.59;5093333;28;19923;-47
2021/06/05 02:15:37;;;;;;;;;;;;;;;18.82;57.10;100319.72;5091824;28;20269;-49
2021/06/05 02:18:04;;;;;;;;;;;;;;;18.83;56.99;100321.38;5092963;28;19927;-53
2021/06/05 02:20:48;;;;;;;;;;;;;;;18.79;57.34;100328.28;5093050;28;19912;-52
2021/06/05 02:23:14;;;;;;;;;;;;;;;18.82;57.19;100316.22;5107201;28;19919;-49
2021/06/05 02:25:40;;;;;;;;;;;;;;;18.82;57.26;100317.00;5111968;28;19989;-46
2021/06/05 02:28:05;;;;;;;;;;;;;;;18.75;57.78;100327.94;5112394;28;20402;-50
2021/06/05 02:30:30;;;;;;;;;;;;;;;18.73;57.39;100327.38;5093428;28;20403;-49
2021/06/05 02:32:56;;;;;;;;;;;;;;;18.81;57.38;100325.34;5112603;28;19912;-49
2021/06/05 02:35:25;;;;;;;;;;;;;;;18.71;58.09;100332.16;5111536;28;19990;-48
2021/06/05 02:37:51;;;;;;;;;;;;;;;18.63;57.74;100329.88;5112778;28;19922;-50
2021/06/05 02:40:17;;;;;;;;;;;;;;;18.36;58.66;100322.38;5111735;28;20002;-50
2021/06/05 02:42:43;;;;;;;;;;;;;;;18.45;58.76;100325.53;5113018;28;19947;-52
2021/06/05 02:45:09;;;;;;;;;;;;;;;18.58;58.10;100321.69;5111359;28;20016;-53
2021/06/05 02:47:35;;;;;;;;;;;;;;;18.48;58.27;100322.31;5112693;28;19961;-50
2021/06/05 02:50:00;;;;;;;;;;;;;;;18.58;58.30;100320.88;5112709;28;19912;-50
2021/06/05 02:52:30;;;;;;;;;;;;;;;18.55;58.80;100319.50;5105971;28;19998;-48
2021/06/05 02:55:05;;;;;;;;;;;;;;;18.72;57.84;100324.91;5092492;28;19912;-48
2021/06/05 02:57:30;;;;;;;;;;;;;;;18.61;57.90;100315.81;5092687;28;19912;-51
2021/06/05 02:59:56;;;;;;;;;;;;;;;18.70;57.92;100318.94;5090341;28;19942;-48
2021/06/05 03:02:21;;;;;;;;;;;;;;;18.69;57.76;100317.28;5092062;28;20006;-50
2021/06/05 03:04:47;;;;;;;;;;;;;;;18.71;57.58;100328.66;5091725;28;19942;-50
2021/06/05 03:07:13;;;;;;;;;;;;;;;18.75;57.84;100324.41;5092349;28;19912;-52
2021/06/05 03:09:38;;;;;;;;;;;;;;;18.83;57.45;100323.22;5091953;28;19939;-50
2021/06/05 03:12:04;;;;;;;;;;;;;;;18.80;57.76;100327.22;5092032;28;19971;-52
2021/06/05 03:14:30;;;;;;;;;;;;;;;18.78;57.67;100331.22;5091834;28;19922;-50
2021/06/05 03:16:55;;;;;;;;;;;;;;;18.78;57.43;100329.31;5091391;28;19991;-50
2021/06/05 03:19:20;;;;;;;;;;;;;;;18.83;57.07;100325.91;5091733;28;19912;-51
2021/06/05 03:21:46;;;;;;;;;;;;;;;18.73;60.70;100327.38;5094994;28;19915;-52
2021/06/05 03:24:11;;;;;;;;;;;;;;;18.92;57.83;100333.38;5112115;28;19918;-51
2021/06/05 03:26:37;;;;;;;;;;;;;;;19.00;57.47;100332.16;5112186;28;19922;-49
2021/06/05 03:29:02;;;;;;;;;;;;;;;19.00;56.97;100332.16;5110479;28;19912;-50
2021/06/05 03:31:28;;;;;;;;;;;;;;;19.03;56.41;100331.66;5111675;28;19916;-53
2021/06/05 03:33:53;;;;;;;;;;;;;;;19.08;56.25;100334.44;5111903;28;19919;-50
2021/06/05 03:36:18;;;;;;;;;;;;;;;19.04;56.46;100332.47;5111895;28;19975;-50
2021/06/05 03:38:44;;;;;;;;;;;;;;;19.04;56.42;100333.31;5111915;28;19919;-50
2021/06/05 03:41:10;;;;;;;;;;;;;;;18.96;57.15;100328.28;5111778;28;20394;-50
2021/06/05 03:43:35;;;;;;;;;;;;;;;19.05;56.46;100332.22;5110458;28;19911;-49
2021/06/05 03:46:01;;;;;;;;;;;;;;;18.27;59.27;100333.78;5111825;28;19912;-50
2021/06/05 03:48:26;;;;;;;;;;;;;;;18.62;58.35;100339.03;5111571;28;19946;-49
2021/06/05 03:50:52;;;;;;;;;;;;;;;18.97;57.53;100342.63;5111523;28;19920;-48
2021/06/05 03:53:17;;;;;;;;;;;;;;;18.97;57.47;100339.91;5097484;28;19952;-49
2021/06/05 03:55:43;;;;;;;;;;;;;;;19.07;57.45;100343.59;5090927;28;19927;-48
2021/06/05 03:58:10;;;;;;;;;;;;;;;19.34;56.33;100335.66;5090538;28;20379;-50
2021/06/05 04:00:36;;;;;;;;;;;;;;;19.35;55.91;100336.47;5089702;28;19958;-52
2021/06/05 04:03:01;;;;;;;;;;;;;;;19.49;55.59;100343.13;5090426;28;20306;-48
2021/06/05 04:05:27;;;;;;;;;;;;;;;19.38;55.50;100337.84;5090444;28;19912;-49
2021/06/05 04:07:52;;;;;;;;;;;;;;;19.03;56.24;100336.25;5090475;28;19985;-52
2021/06/05 04:10:18;;;;;;;;;;;;;;;18.75;56.72;100340.59;5090290;28;20347;-53
2021/06/05 04:12:43;;;;;;;;;;;;;;;19.12;56.24;100340.97;5090518;28;19916;-50
2021/06/05 04:15:09;;;;;;;;;;;;;;;19.33;55.54;100335.91;5090358;28;19920;-52
2021/06/05 04:17:35;;;;;;;;;;;;;;;19.42;55.22;100338.97;5090316;28;19923;-49
2021/06/05 04:20:00;;;;;;;;;;;;;;;19.52;54.89;100334.56;5090208;28;19912;-50
2021/06/05 04:22:26;;;;;;;;;;;;;;;19.59;54.82;100330.84;5098918;28;20363;-49
2021/06/05 04:24:51;;;;;;;;;;;;;;;19.74;54.45;100341.88;5110489;28;19966;-50
2021/06/05 04:27:16;;;;;;;;;;;;;;;19.74;54.52;100347.28;5109863;28;20029;-51
2021/06/05 04:29:41;;;;;;;;;;;;;;;19.79;54.39;100336.56;5109758;28;19974;-49
2021/06/05 04:32:07;;;;;;;;;;;;;;;19.83;54.23;100337.69;5109651;28;19916;-49
2021/06/05 04:34:32;;;;;;;;;;;;;;;20.09;53.92;100340.72;5109963;28;19912;-52
2021/06/05 04:36:58;;;;;;;;;;;;;;;20.24;53.06;100343.59;5108527;28;19916;-50
2021/06/05 04:39:23;;;;;;;;;;;;;;;20.41;52.63;100348.09;5110073;28;19911;-49
2021/06/05 04:41:48;;;;;;;;;;;;;;;20.37;54.74;100344.28;5108841;28;20383;-52
2021/06/05 04:44:14;;;;;;;;;;;;;;;20.82;52.45;100329.59;5110204;28;19912;-52
2021/06/05 04:46:39;;;;;;;;;;;;;;;20.54;52.21;100334.19;5110277;28;19919;-52
2021/06/05 04:49:05;;;;;;;;;;;;;;;20.70;51.72;100336.00;5110150;28;19912;-53
2021/06/05 04:51:30;;;;;;;;;;;;;;;20.99;50.97;100335.69;5105611;28;20053;-53
2021/06/05 04:53:56;;;;;;;;;;;;;;;21.28;50.65;100327.25;5089753;28;20277;-53
2021/06/05 04:56:22;;;;;;;;;;;;;;;21.52;49.79;100335.03;5080545;28;19912;-53
2021/06/05 04:58:48;;;;;;;;;;;;;;;21.35;50.09;100332.47;5068244;28;19924;-52
2021/06/05 05:01:13;;;;;;;;;;;;;;;21.24;49.93;100326.16;5069571;28;19913;-52
2021/06/05 05:03:39;;;;;;;;;;;;;;;21.83;48.97;100331.38;5082562;28;20003;-53
2021/06/05 05:06:04;;;;;;;;;;;;;;;22.54;48.48;100330.03;5089557;28;19935;-52
2021/06/05 05:08:29;;;;;;;;;;;;;;;22.79;46.96;100336.53;5089558;28;19969;-51
2021/06/05 05:10:55;;;;;;;;;;;;;;;23.16;46.64;100338.22;5089420;28;19938;-51
2021/06/05 05:13:21;;;;;;;;;;;;;;;23.62;45.56;100335.41;5089520;28;19981;-49
2021/06/05 05:15:46;;;;;;;;;;;;;;;23.83;44.64;100336.19;5089307;28;19950;-51
2021/06/05 05:18:12;;;;;;;;;;;;;;;24.29;43.49;100333.25;5089487;28;19961;-52
2021/06/05 05:20:37;;;;;;;;;;;;;;;24.84;43.52;100335.09;5087401;28;20322;-48
2021/06/05 05:23:03;;;;;;;;;;;;;;;25.38;41.33;100331.38;5088029;28;20007;-38
2021/06/05 05:25:28;;;;;;;;;;;;;;;25.65;40.28;100330.00;5090215;28;19946;-38
2021/06/05 05:27:54;;;;;;;;;;;;;;;25.52;42.19;100324.13;5089795;28;19912;-39
2021/06/05 05:30:40;;;;;;;;;;;;;;;25.73;40.07;100330.16;5087573;28;20126;-38
2021/06/05 05:33:05;;;;;;;;;;;;;;;25.77;39.87;100321.41;5089425;28;20222;-38
2021/06/05 05:35:33;;;;;;;;;;;;;;;26.07;39.52;100317.53;5087892;28;19923;-38
2021/06/05 05:37:58;;;;;;;;;;;;;;;26.38;38.84;100315.16;5088852;28;20392;-51
2021/06/05 05:40:24;;;;;;;;;;;;;;;26.65;38.09;100310.97;5091528;28;19943;-52
2021/06/05 05:42:49;;;;;;;;;;;;;;;26.72;38.70;100317.69;5092624;28;19958;-52
2021/06/05 05:45:14;;;;;;;;;;;;;;;26.81;37.55;100317.00;5092845;28;20291;-49
2021/06/05 05:47:40;;;;;;;;;;;;;;;26.89;37.03;100316.31;5092906;28;19932;-52
2021/06/05 05:50:06;;;;;;;;;;;;;;;26.93;36.95;100309.16;5092728;28;19919;-48
2021/06/05 05:52:31;;;;;;;;;;;;;;;27.23;37.13;100312.47;5091370;28;19920;-51
2021/06/05 05:54:56;;;;;;;;;;;;;;;27.37;36.88;100307.03;5072351;28;19962;-49
2021/06/05 05:57:22;;;;;;;;;;;;;;;27.61;36.20;100304.94;5070859;28;19919;-51
2021/06/05 05:59:47;;;;;;;;;;;;;;;27.59;36.09;100304.41;5070120;28;19912;-52
2021/06/05 06:02:12;;;;;;;;;;;;;;;27.68;36.23;100312.69;5070927;28;20406;-50
2021/06/05 06:04:38;;;;;;;;;;;;;;;27.93;35.29;100305.13;5070960;28;19986;-51
2021/06/05 06:07:03;;;;;;;;;;;;;;;28.08;34.71;100302.88;5071142;28;19913;-50
2021/06/05 06:09:28;;;;;;;;;;;;;;;28.11;34.59;100306.13;5071103;28;19916;-52
2021/06/05 06:11:54;;;;;;;;;;;;;;;28.23;35.08;100298.97;5070819;28;19927;-51
2021/06/05 06:14:19;;;;;;;;;;;;;;;28.70;34.84;100306.16;5070685;28;19966;-49
2021/06/05 06:16:44;;;;;;;;;;;;;;;28.94;33.66;100305.78;5070941;28;19928;-51
2021/06/05 06:19:12;;;;;;;;;;;;;;;28.83;33.58;100299.78;5070708;28;20410;-51
2021/06/05 06:21:38;;;;;;;;;;;;;;;28.80;34.96;100300.41;5075721;28;19913;-52
2021/06/05 06:24:03;;;;;;;;;;;;;;;29.34;33.61;100300.38;5111666;28;19968;-49
2021/06/05 06:26:29;;;;;;;;;;;;;;;29.70;32.55;100293.91;5111555;28;19916;-50
2021/06/05 06:28:56;;;;;;;;;;;;;;;30.36;32.01;100286.44;5111614;28;19943;-52
2021/06/05 06:31:21;;;;;;;;;;;;;;;30.83;31.11;100283.00;5111979;28;19916;-51
2021/06/05 06:33:47;;;;;;;;;;;;;;;31.21;30.11;100284.22;5111708;28;19919;-51
2021/06/05 06:36:12;;;;;;;;;;;;;;;31.52;30.26;100289.44;5111671;28;19912;-50
2021/06/05 06:38:42;;;;;;;;;;;;;;;32.09;29.22;100282.63;5110648;28;19912;-50
2021/06/05 06:41:09;;;;;;;;;;;;;;;31.41;28.79;100282.66;5092468;28;19912;-52
2021/06/05 06:43:34;;;;;;;;;;;;;;;31.74;29.76;100278.16;5091545;28;20372;-51
2021/06/05 06:46:00;;;;;;;;;;;;;;;31.78;29.03;100278.28;5091559;28;19912;-50
2021/06/05 06:48:26;;;;;;;;;;;;;;;32.14;28.72;100271.44;5090112;28;20312;-50
2021/06/05 06:50:51;;;;;;;;;;;;;;;32.34;28.64;100267.03;5088638;28;19916;-52
2021/06/05 06:53:17;;;;;;;;;;;;;;;32.87;27.05;100268.16;5088195;28;20387;-51
2021/06/05 06:55:42;;;;;;;;;;;;;;;33.26;26.09;100265.13;5088234;28;19912;-52
2021/06/05 06:58:08;;;;;;;;;;;;;;;33.14;26.03;100265.13;5088409;28;20007;-52
2021/06/05 07:00:39;;;;;;;;;;;;;;;33.30;25.99;100257.75;5088453;28;19912;-50
2021/06/05 07:03:05;;;;;;;;;;;;;;;33.21;26.51;100266.16;5088224;28;20253;-51
2021/06/05 07:05:30;;;;;;;;;;;;;;;33.58;25.65;100251.56;5088377;28;20006;-50
2021/06/05 07:08:07;;;;;;;;;;;;;;;33.34;25.95;100258.72;5089650;28;19912;-51
2021/06/05 07:10:33;;;;;;;;;;;;;;;33.38;25.78;100256.88;5089384;28;19938;-52
2021/06/05 07:12:58;;;;;;;;;;;;;;;32.83;26.08;100255.41;5089949;28;20406;-49
2021/06/05 07:15:23;;;;;;;;;;;;;;;33.35;25.89;100251.22;5089497;28;19920;-47
2021/06/05 07:17:49;;;;;;;;;;;;;;;33.54;26.23;100239.59;5089405;28;19924;-50
2021/06/05 07:20:14;;;;;;;;;;;;;;;33.50;26.44;100254.09;5089832;28;19965;-49
2021/06/05 07:22:40;;;;;;;;;;;;;;;33.24;26.38;100246.19;5100368;28;19912;-51
2021/06/05 07:25:05;;;;;;;;;;;;;;;33.60;26.07;100243.72;5108730;28;20436;-51
2021/06/05 07:27:30;;;;;;;;;;;;;;;34.21;25.07;100251.09;5109517;28;19912;-49
2021/06/05 07:29:56;;;;;;;;;;;;;;;34.89;24.37;100241.91;5108165;28;19923;-51
2021/06/05 07:32:21;;;;;;;;;;;;;;;35.08;23.61;100251.47;5109483;28;19916;-49
2021/06/05 07:34:46;;;;;;;;;;;;;;;35.13;24.03;100237.34;5109512;28;19912;-51
2021/06/05 07:37:12;;;;;;;;;;;;;;;35.17;23.97;100241.84;5109386;28;20023;-50
2021/06/05 07:39:37;;;;;;;;;;;;;;;35.53;23.71;100242.69;5109442;28;20413;-51
2021/06/05 07:42:03;;;;;;;;;;;;;;;35.05;23.88;100233.59;5109425;28;19919;-50
2021/06/05 07:44:29;;;;;;;;;;;;;;;33.98;25.33;100242.53;5110054;28;19912;-50
2021/06/05 07:46:56;;;;;;;;;;;;;;;33.81;25.23;100236.13;5109613;28;19995;-50
2021/06/05 07:49:23;;;;;;;;;;;;;;;33.34;25.57;100242.16;5107901;28;19912;-50
2021/06/05 07:51:49;;;;;;;;;;;;;;;33.23;26.23;100236.28;5107657;28;20286;-50
2021/06/05 07:54:14;;;;;;;;;;;;;;;33.55;26.40;100235.69;5088644;28;19923;-50
2021/06/05 07:56:39;;;;;;;;;;;;;;;33.21;25.72;100237.81;5089341;28;20139;-50
2021/06/05 07:59:05;;;;;;;;;;;;;;;33.21;25.51;100237.81;5089497;28;19919;-48
2021/06/05 08:01:30;;;;;;;;;;;;;;;32.25;27.94;100233.28;5088620;28;19922;-51
2021/06/05 08:03:55;;;;;;;;;;;;;;;33.22;26.07;100229.16;5088703;28;19912;-50
2021/06/05 08:06:20;;;;;;;;;;;;;;;32.99;25.96;100231.53;5088937;28;19919;-48
2021/06/05 08:08:46;;;;;;;;;;;;;;;32.72;27.25;100225.53;5088759;28;19959;-51
2021/06/05 08:11:12;;;;;;;;;;;;;;;33.19;27.07;100231.81;5088724;28;19955;-51
2021/06/05 08:13:37;;;;;;;;;;;;;;;34.13;25.22;100229.94;5089224;28;19973;-50
2021/06/05 08:16:03;;;;;;;;;;;;;;;34.39;24.55;100227.56;5080439;28;20309;-48
2021/06/05 08:18:28;;;;;;;;;;;;;;;34.66;24.30;100231.44;5076926;28;19920;-47
2021/06/05 08:20:55;;;;;;;;;;;;;;;34.83;23.83;100226.75;5090312;28;19919;-48
2021/06/05 08:23:23;;;;;;;;;;;;;;;33.97;24.50;100207.81;5105040;28;19975;-48
2021/06/05 08:25:49;;;;;;;;;;;;;;;34.37;24.56;100224.34;5095661;28;19935;-48
2021/06/05 08:28:14;;;;;;;;;;;;;;;35.66;23.35;100217.66;5104768;28;20344;-49
2021/06/05 08:30:43;;;;;;;;;;;;;;;35.57;23.28;100226.97;5091449;28;19923;-51
2021/06/05 08:33:09;;;;;;;;;;;;;;;35.46;23.16;100225.13;5100776;28;19912;-49
2021/06/05 08:35:34;;;;;;;;;;;;;;;35.29;23.36;100216.03;5099065;28;19912;-48
2021/06/05 08:38:00;;;;;;;;;;;;;;;34.73;24.18;100211.50;5108383;28;20382;-48
2021/06/05 08:41:00;;;;;;;;;;;;;;;35.47;21.66;100210.13;5108544;28;20138;-49
2021/06/05 08:43:25;;;;;;;;;;;;;;;35.48;21.87;100204.22;5065257;28;19916;-49
2021/06/05 08:45:51;;;;;;;;;;;;;;;35.48;22.53;100206.19;5099538;28;19939;-50
2021/06/05 08:48:18;;;;;;;;;;;;;;;35.61;23.23;100199.38;5108836;28;19991;-50
2021/06/05 08:50:44;;;;;;;;;;;;;;;36.09;21.81;100202.75;5106887;28;19915;-49
2021/06/05 08:53:16;;;;;;;;;;;;;;;35.96;22.70;100204.88;5095556;28;19923;-51
2021/06/05 08:55:46;;;;;;;;;;;;;;;35.35;23.09;100197.22;5087085;28;19931;-49
2021/06/05 08:58:31;;;;;;;;;;;;;;;34.69;23.52;100193.22;5088173;28;19963;-50
2021/06/05 09:00:58;;;;;;;;;;;;;;;35.01;22.61;100183.78;5086286;28;19920;-48
2021/06/05 09:03:24;;;;;;;;;;;;;;;35.75;22.00;100188.63;5087425;28;20034;-48
2021/06/05 09:05:53;;;;;;;;;;;;;;;36.59;21.26;100189.06;5088100;28;19916;-51
2021/06/05 09:08:19;;;;;;;;;;;;;;;35.89;20.89;100182.59;5088043;28;20363;-49
2021/06/05 09:10:44;;;;;;;;;;;;;;;35.61;22.18;100177.25;5087939;28;19916;-50
2021/06/05 09:13:10;;;;;;;;;;;;;;;35.51;22.36;100175.03;5088454;28;19920;-49
2021/06/05 09:15:35;;;;;;;;;;;;;;;36.20;21.01;100167.78;5091252;28;20026;-51
2021/06/05 09:18:01;;;;;;;;;;;;;;;36.10;20.12;100168.38;5091409;28;19920;-50
2021/06/05 09:20:27;;;;;;;;;;;;;;;35.94;21.20;100159.34;5089364;28;20339;-50
2021/06/05 09:22:52;;;;;;;;;;;;;;;35.14;22.06;100153.25;5093338;28;19916;-51
2021/06/05 09:25:26;;;;;;;;;;;;;;;35.55;21.92;100154.59;5091194;28;19943;-50
2021/06/05 09:27:52;;;;;;;;;;;;;;;35.20;21.67;100152.63;5088997;28;19969;-49
2021/06/05 09:30:31;;;;;;;;;;;;;;;35.24;21.34;100147.19;5088182;28;19948;-48
2021/06/05 09:32:57;;;;;;;;;;;;;;;35.65;20.79;100144.91;5088955;28;20049;-52
2021/06/05 09:35:30;;;;;;;;;;;;;;;36.37;21.05;100147.13;5087996;28;19939;-50
2021/06/05 09:38:11;;;;;;;;;;;;;;;37.19;19.94;100149.69;5086249;28;20344;-49
2021/06/05 09:40:37;;;;;;;;;;;;;;;37.19;18.88;100137.78;5085843;28;19927;-48
2021/06/05 09:43:08;;;;;;;;;;;;;;;35.94;20.65;100137.19;5090882;28;20061;-49
2021/06/05 09:45:37;;;;;;;;;;;;;;;36.32;19.49;100133.56;5071227;28;19995;-49
2021/06/05 09:48:21;;;;;;;;;;;;;;;36.16;18.63;100132.88;5072075;28;19932;-48
2021/06/05 09:50:47;;;;;;;;;;;;;;;35.82;20.14;100127.09;5072092;28;19924;-50
2021/06/05 09:53:20;;;;;;;;;;;;;;;36.54;19.17;100126.44;5085577;28;19942;-50
2021/06/05 09:55:45;;;;;;;;;;;;;;;36.65;19.19;100123.84;5091600;28;20375;-38
2021/06/05 09:58:29;;;;;;;;;;;;;;;36.64;18.89;100116.69;5092540;28;20574;-39
2021/06/05 10:00:59;;;;;;;;;;;;;;;36.39;19.30;100119.06;5092336;28;19913;-39
2021/06/05 10:03:28;;;;;;;;;;;;;;;36.76;18.07;100110.97;5090741;28;19916;-37
2021/06/05 10:05:54;;;;;;;;;;;;;;;36.73;17.36;100103.41;5090984;28;19916;-38
2021/06/05 10:08:36;;;;;;;;;;;;;;;37.13;17.65;100107.59;5092199;28;20073;-39
2021/06/05 10:11:22;;;;;;;;;;;;;;;37.20;17.25;100098.56;5092406;28;20614;-38
2021/06/05 10:13:50;;;;;;;;;;;;;;;36.55;17.56;100111.41;5091082;28;19922;-38
2021/06/05 10:16:19;;;;;;;;;;;;;;;35.43;18.22;100091.91;5092267;28;19924;-39
2021/06/05 10:18:45;;;;;;;;;;;;;;;35.38;18.48;100092.19;5091715;28;19919;-39
2021/06/05 10:21:37;;;;;;;;;;;;;;;35.46;18.87;100087.59;5091932;28;19912;-38
2021/06/05 10:24:04;;;;;;;;;;;;;;;35.24;20.12;100092.69;5069553;28;20292;-40
2021/06/05 10:26:31;;;;;;;;;;;;;;;36.34;18.16;100089.69;5070343;28;19916;-37
2021/06/05 10:29:03;;;;;;;;;;;;;;;36.97;17.46;100091.09;5071401;28;19969;-39
2021/06/05 10:31:28;;;;;;;;;;;;;;;36.65;16.83;100089.78;5078303;28;19966;-38
2021/06/05 10:34:00;;;;;;;;;;;;;;;36.40;17.94;100073.56;5089990;28;19951;-38
2021/06/05 10:36:26;;;;;;;;;;;;;;;37.16;17.31;100069.97;5088828;28;19912;-38
2021/06/05 10:39:21;;;;;;;;;;;;;;;37.24;16.62;100065.31;5089702;28;20010;-51
2021/06/05 10:41:56;;;;;;;;;;;;;;;35.70;17.63;100067.16;5081737;28;20006;-51
2021/06/05 10:44:23;;;;;;;;;;;;;;;37.03;16.87;100054.72;5090179;28;20007;-49
2021/06/05 10:46:51;;;;;;;;;;;;;;;37.40;16.18;100059.59;5089621;28;19916;-49
2021/06/05 10:49:21;;;;;;;;;;;;;;;38.00;16.21;100051.13;5090268;28;20346;-49
2021/06/05 10:51:47;;;;;;;;;;;;;;;37.09;15.93;100047.66;5088955;28;20223;-50
2021/06/05 10:54:19;;;;;;;;;;;;;;;35.63;16.79;100050.38;5088801;28;19938;-49
2021/06/05 10:56:58;;;;;;;;;;;;;;;33.71;18.99;100053.72;5090488;28;19919;-51
2021/06/05 10:59:42;;;;;;;;;;;;;;;33.22;19.92;100038.94;5088708;28;19912;-51
2021/06/05 11:02:08;;;;;;;;;;;;;;;33.25;19.49;100029.97;5089689;28;20358;-49
2021/06/05 11:04:33;;;;;;;;;;;;;;;33.38;20.00;100033.50;5089739;28;19920;-50
2021/06/05 11:07:01;;;;;;;;;;;;;;;33.66;19.47;100030.75;5089953;28;19954;-48
2021/06/05 11:09:27;;;;;;;;;;;;;;;33.98;18.48;100030.78;5089375;28;19912;-48
2021/06/05 11:11:52;;;;;;;;;;;;;;;34.31;19.30;100028.88;5088619;28;20316;-51
2021/06/05 11:14:24;;;;;;;;;;;;;;;33.91;19.12;100021.53;5089785;28;19916;-50
2021/06/05 11:16:58;;;;;;;;;;;;;;;34.14;18.64;100019.78;5089371;28;19920;-49
2021/06/05 11:19:40;;;;;;;;;;;;;;;34.68;18.29;100010.06;5090606;28;19912;-50
2021/06/05 11:22:10;;;;;;;;;;;;;;;34.95;18.86;100015.78;5089120;28;20269;-51
2021/06/05 11:24:35;;;;;;;;;;;;;;;35.21;17.50;100021.50;5090746;28;19919;-49
2021/06/05 11:27:01;;;;;;;;;;;;;;;34.99;18.33;100013.88;5088536;28;19912;-51
2021/06/05 11:29:26;;;;;;;;;;;;;;;35.20;18.26;100008.03;5090531;28;20561;-51
2021/06/05 11:31:54;;;;;;;;;;;;;;;35.38;18.36;100006.44;5089324;28;19919;-48
2021/06/05 11:34:29;;;;;;;;;;;;;;;35.46;18.32;100006.56;5089201;28;19922;-50
2021/06/05 11:36:58;;;;;;;;;;;;;;;35.58;17.87;100009.97;5088970;28;20015;-48
2021/06/05 11:39:23;;;;;;;;;;;;;;;35.54;17.72;100000.00;5089962;28;19942;-49
2021/06/05 11:41:52;;;;;;;;;;;;;;;35.46;17.53;99999.06;5090217;28;19955;-51
2021/06/05 11:44:18;;;;;;;;;;;;;;;32.95;19.51;99993.63;5090424;28;20006;-49
2021/06/05 11:46:44;;;;;;;;;;;;;;;33.44;19.32;99987.16;5090245;28;20348;-49
2021/06/05 11:49:10;;;;;;;;;;;;;;;34.02;18.83;99993.03;5089818;28;19915;-51
2021/06/05 11:51:39;;;;;;;;;;;;;;;33.30;19.56;99995.81;5089840;28;19916;-48
2021/06/05 11:54:22;;;;;;;;;;;;;;;33.35;19.25;99995.56;5089693;28;19980;-48
2021/06/05 11:56:54;;;;;;;;;;;;;;;34.02;18.67;99983.97;5090475;28;20051;-49
2021/06/05 11:59:31;;;;;;;;;;;;;;;33.59;19.71;99980.88;5090008;28;19932;-49
2021/06/05 12:02:25;;;;;;;;;;;;;;;34.47;19.56;99980.75;5088108;28;20348;-51
2021/06/05 12:05:00;;;;;;;;;;;;;;;34.60;18.88;99980.66;5080341;28;19912;-52
2021/06/05 12:07:35;;;;;;;;;;;;;;;34.09;19.12;99982.19;5089807;28;19912;-48
2021/06/05 12:10:00;;;;;;;;;;;;;;;34.06;19.50;99982.09;5088125;28;19913;-50
2021/06/05 12:12:37;;;;;;;;;;;;;;;33.83;19.52;99977.22;5089834;28;20023;-51
2021/06/05 12:15:05;;;;;;;;;;;;;;;33.28;20.40;99965.03;5088075;28;19920;-52
2021/06/05 12:17:38;;;;;;;;;;;;;;;32.77;19.95;99959.22;5088946;28;19970;-52
2021/06/05 12:20:03;;;;;;;;;;;;;;;32.75;20.29;99967.84;5089618;28;20252;-49
2021/06/05 12:22:29;;;;;;;;;;;;;;;33.14;19.28;99967.41;5099088;28;20003;-50
2021/06/05 12:24:54;;;;;;;;;;;;;;;33.33;19.84;99962.03;5109992;28;19912;-49
2021/06/05 12:27:21;;;;;;;;;;;;;;;33.51;18.74;99954.28;5110046;28;20589;-50
2021/06/05 12:29:46;;;;;;;;;;;;;;;32.80;19.16;99956.56;5110026;28;19939;-51
2021/06/05 12:32:13;;;;;;;;;;;;;;;33.66;17.75;99945.25;5109646;28;19963;-49
2021/06/05 12:34:39;;;;;;;;;;;;;;;33.67;18.59;99957.06;5110204;28;19911;-50
2021/06/05 12:37:16;;;;;;;;;;;;;;;31.87;20.02;99954.41;5109759;28;20006;-50
2021/06/05 12:39:44;;;;;;;;;;;;;;;32.33;19.88;99941.38;5108152;28;20410;-49